createdAt,value
2022-09-27T00:00:35.932Z,99258.16
2022-09-27T00:03:03.925Z,99259.88
2022-09-27T00:05:32.140Z,99245.75
2022-09-27T00:08:00.318Z,99273.72
2022-09-27T00:10:28.925Z,99267.50
2022-09-27T00:12:59.274Z,99246.78
2022-09-27T00:15:30.976Z,99265.88
2022-09-27T00:17:59.164Z,99269.59
2022-09-27T00:20:28.488Z,99271.28
2022-09-27T00:22:56.348Z,99264.38
2022-09-27T00:25:24.294Z,99269.59
2022-09-27T00:27:52.237Z,99274.69
2022-09-27T00:30:20.142Z,99252.03
2022-09-27T00:32:51.841Z,99264.47
2022-09-27T00:35:20.785Z,99251.72
2022-09-27T00:37:49.678Z,99261.09
2022-09-27T00:40:19.741Z,99246.28
2022-09-27T00:42:48.582Z,99250.19
2022-09-27T00:45:18.355Z,99257.94
2022-09-27T00:47:56.025Z,99238.00
2022-09-27T00:50:29.768Z,99260.03
2022-09-27T00:53:07.069Z,99252.56
2022-09-27T00:55:40.144Z,99236.47
2022-09-27T00:58:08.628Z,99251.97
2022-09-27T01:00:39.814Z,99246.44
2022-09-27T01:03:20.074Z,99258.31
2022-09-27T01:05:49.748Z,99255.84
2022-09-27T01:08:17.691Z,99263.66
2022-09-27T01:10:57.106Z,99255.72
2022-09-27T01:13:31.273Z,99249.34
2022-09-27T01:16:07.141Z,99259.13
2022-09-27T01:18:48.551Z,99255.97
2022-09-27T01:21:40.696Z,99265.88
2022-09-27T01:24:31.255Z,99265.28
2022-09-27T01:27:28.528Z,99260.19
2022-09-27T01:30:23.162Z,99279.94
2022-09-27T01:32:59.661Z,99259.66
2022-09-27T01:35:40.522Z,99266.13
2022-09-27T01:38:18.536Z,99247.50
2022-09-27T01:40:53.698Z,99259.25
2022-09-27T01:43:26.499Z,99276.63
2022-09-27T01:46:00.816Z,99252.25
2022-09-27T01:48:34.469Z,99261.25
2022-09-27T01:51:08.278Z,99239.81
2022-09-27T01:53:39.413Z,99267.22
2022-09-27T01:56:12.640Z,99265.19
2022-09-27T01:58:47.745Z,99252.56
2022-09-27T02:01:20.296Z,99260.00
2022-09-27T02:03:51.354Z,99222.97
2022-09-27T02:06:25.007Z,99255.66
2022-09-27T02:08:59.450Z,99267.81
2022-09-27T02:11:28.684Z,99268.25
2022-09-27T02:14:01.574Z,99251.97
2022-09-27T02:16:47.279Z,99237.78
2022-09-27T02:19:22.474Z,99254.28
2022-09-27T02:22:00.658Z,99251.22
2022-09-27T02:24:36.401Z,99245.75
2022-09-27T02:27:10.246Z,99248.31
2022-09-27T02:29:44.952Z,99238.34
2022-09-27T02:32:14.636Z,99243.47
2022-09-27T02:34:45.165Z,99242.00
2022-09-27T02:37:14.739Z,99237.88
2022-09-27T02:39:43.631Z,99245.09
2022-09-27T02:42:12.641Z,99247.28
2022-09-27T02:44:43.481Z,99234.88
2022-09-27T02:47:44.552Z,99254.56
2022-09-27T02:50:31.463Z,99265.88
2022-09-27T02:53:08.200Z,99256.34
2022-09-27T02:55:48.552Z,99261.56
2022-09-27T02:58:27.582Z,99257.69
2022-09-27T03:01:03.326Z,99250.06
2022-09-27T03:03:37.712Z,99260.69
2022-09-27T03:06:09.662Z,99248.50
2022-09-27T03:08:38.951Z,99245.78
2022-09-27T03:11:07.050Z,99239.50
2022-09-27T03:14:01.846Z,99230.13
2022-09-27T03:16:33.585Z,99221.34
2022-09-27T03:19:03.038Z,99231.66
2022-09-27T03:21:33.027Z,99200.50
2022-09-27T03:24:00.960Z,99182.19
2022-09-27T03:26:29.209Z,99215.81
2022-09-27T03:28:57.598Z,99186.78
2022-09-27T03:31:25.638Z,99185.34
2022-09-27T03:33:53.673Z,99198.47
2022-09-27T03:36:23.187Z,99185.44
2022-09-27T03:38:51.515Z,99194.59
2022-09-27T03:41:19.331Z,99194.97
2022-09-27T03:43:47.317Z,99194.44
2022-09-27T03:46:17.416Z,99181.66
2022-09-27T03:49:06.142Z,99189.25
2022-09-27T03:51:35.944Z,99197.31
2022-09-27T03:54:05.401Z,99202.22
2022-09-27T03:56:34.612Z,99188.75
2022-09-27T03:59:02.771Z,99178.44
2022-09-27T04:01:31.905Z,99190.44
2022-09-27T04:03:59.960Z,99171.19
2022-09-27T04:06:28.091Z,99178.16
2022-09-27T04:08:57.435Z,99191.47
2022-09-27T04:11:25.242Z,99188.94
2022-09-27T04:13:53.113Z,99187.47
2022-09-27T04:16:20.978Z,99195.31
2022-09-27T04:18:48.792Z,99197.09
2022-09-27T04:21:16.686Z,99205.19
2022-09-27T04:23:44.451Z,99201.75
2022-09-27T04:26:13.806Z,99199.50
2022-09-27T04:28:41.750Z,99194.94
2022-09-27T04:31:09.589Z,99207.19
2022-09-27T04:33:37.734Z,99194.69
2022-09-27T04:36:23.632Z,99209.41
2022-09-27T04:38:51.331Z,99208.38
2022-09-27T04:41:23.389Z,99202.28
2022-09-27T04:43:56.638Z,99206.94
2022-09-27T04:46:27.356Z,99202.06
2022-09-27T04:48:55.356Z,99202.84
2022-09-27T04:51:23.257Z,99208.88
2022-09-27T04:53:51.036Z,99213.66
2022-09-27T04:56:18.940Z,99220.22
2022-09-27T04:58:48.167Z,99222.94
2022-09-27T05:01:16.604Z,99228.28
2022-09-27T05:03:44.388Z,99224.19
2022-09-27T05:06:20.530Z,99214.66
2022-09-27T05:08:48.378Z,99220.84
2022-09-27T05:11:16.145Z,99224.44
2022-09-27T05:13:44.088Z,99220.31
2022-09-27T05:16:13.433Z,99228.50
2022-09-27T05:18:41.841Z,99219.88
2022-09-27T05:21:09.894Z,99226.56
2022-09-27T05:23:37.777Z,99223.84
2022-09-27T05:26:07.513Z,99226.97
2022-09-27T05:28:36.203Z,99244.09
2022-09-27T05:31:04.578Z,99245.56
2022-09-27T05:33:34.419Z,99234.06
2022-09-27T05:36:03.285Z,99245.09
2022-09-27T05:38:31.171Z,99263.25
2022-09-27T05:40:59.166Z,99235.22
2022-09-27T05:43:28.451Z,99252.09
2022-09-27T05:45:56.671Z,99256.34
2022-09-27T05:48:24.601Z,99259.91
2022-09-27T05:50:53.885Z,99276.75
2022-09-27T05:53:21.729Z,99268.06
2022-09-27T05:55:50.031Z,99273.59
2022-09-27T05:58:18.119Z,99261.94
2022-09-27T06:00:46.025Z,99271.47
2022-09-27T06:03:15.158Z,99276.44
2022-09-27T06:05:42.989Z,99272.78
2022-09-27T06:08:14.497Z,99280.16
2022-09-27T06:10:42.698Z,99271.16
2022-09-27T06:13:13.118Z,99281.38
2022-09-27T06:15:42.526Z,99266.94
2022-09-27T06:18:12.099Z,99278.03
2022-09-27T06:20:41.608Z,99284.16
2022-09-27T06:23:11.800Z,99288.94
2022-09-27T06:25:42.106Z,99287.44
2022-09-27T06:28:15.317Z,99298.53
2022-09-27T06:30:44.740Z,99285.13
2022-09-27T06:33:15.316Z,99268.59
2022-09-27T06:35:45.318Z,99287.50
2022-09-27T06:38:16.960Z,99292.19
2022-09-27T06:40:48.723Z,99294.13
2022-09-27T06:43:18.159Z,99286.69
2022-09-27T06:45:46.220Z,99296.00
2022-09-27T06:48:16.109Z,99283.47
2022-09-27T06:50:45.264Z,99280.44
2022-09-27T06:53:14.972Z,99273.91
2022-09-27T06:55:43.813Z,99265.81
2022-09-27T06:58:31.195Z,99287.97
2022-09-27T07:01:02.026Z,99282.00
2022-09-27T07:03:37.634Z,99263.69
2022-09-27T07:06:12.987Z,99273.19
2022-09-27T07:08:43.113Z,99272.31
2022-09-27T07:11:11.083Z,99274.19
2022-09-27T07:13:42.923Z,99274.69
2022-09-27T07:16:13.139Z,99270.69
2022-09-27T07:18:49.389Z,99285.25
2022-09-27T07:21:18.209Z,99264.97
2022-09-27T07:23:46.532Z,99271.81
2022-09-27T07:26:14.368Z,99284.19
2022-09-27T07:28:44.968Z,99278.66
2022-09-27T07:31:13.482Z,99272.59
2022-09-27T07:33:43.474Z,99292.56
2022-09-27T07:36:12.992Z,99286.00
2022-09-27T07:38:41.265Z,99285.69
2022-09-27T07:41:13.599Z,99281.56
2022-09-27T07:43:44.202Z,99265.22
2022-09-27T07:46:13.496Z,99272.41
2022-09-27T07:48:41.543Z,99261.41
2022-09-27T07:51:10.936Z,99238.88
2022-09-27T07:53:40.646Z,99220.41
2022-09-27T07:56:08.740Z,99206.66
2022-09-27T07:58:36.616Z,99232.63
2022-09-27T08:01:05.854Z,99242.06
2022-09-27T08:03:34.967Z,99239.28
2022-09-27T08:06:03.616Z,99255.50
2022-09-27T08:08:31.527Z,99248.28
2022-09-27T08:10:59.440Z,99262.28
2022-09-27T08:13:27.316Z,99269.41
2022-09-27T08:15:55.201Z,99264.16
2022-09-27T08:18:24.801Z,99267.66
2022-09-27T08:20:52.638Z,99284.41
2022-09-27T08:23:20.767Z,99295.81
2022-09-27T08:25:53.316Z,99303.28
2022-09-27T08:28:22.775Z,99309.63
2022-09-27T08:30:51.058Z,99313.41
2022-09-27T08:33:19.248Z,99325.09
2022-09-27T08:35:48.569Z,99330.28
2022-09-27T08:38:16.509Z,99324.22
2022-09-27T08:40:54.568Z,99338.16
2022-09-27T08:43:35.587Z,99331.81
2022-09-27T08:46:20.920Z,99326.47
2022-09-27T08:48:52.954Z,99336.28
2022-09-27T08:51:25.214Z,99343.91
2022-09-27T08:53:57.325Z,99344.13
2022-09-27T08:56:25.323Z,99336.06
2022-09-27T08:58:58.845Z,99338.91
2022-09-27T09:01:29.024Z,99343.34
2022-09-27T09:04:01.649Z,99346.59
2022-09-27T09:06:40.664Z,99344.03
2022-09-27T09:09:20.356Z,99356.78
2022-09-27T09:12:15.930Z,99354.97
2022-09-27T09:15:04.072Z,99371.75
2022-09-27T09:17:48.747Z,99349.63
2022-09-27T09:20:30.062Z,99381.66
2022-09-27T09:23:27.795Z,99441.41
2022-09-27T09:26:03.649Z,99703.38
2022-09-27T09:28:50.373Z,99807.56
2022-09-27T09:31:27.931Z,99775.28
2022-09-27T09:33:59.921Z,99756.38
2022-09-27T09:36:33.726Z,99755.41
2022-09-27T09:39:08.250Z,99748.25
2022-09-27T09:41:44.812Z,99721.16
2022-09-27T09:44:19.327Z,99709.66
2022-09-27T09:46:50.523Z,99688.38
2022-09-27T09:49:25.128Z,99689.06
2022-09-27T09:51:56.930Z,99681.28
2022-09-27T09:54:32.580Z,99696.06
2022-09-27T09:57:06.774Z,99691.25
2022-09-27T09:59:45.477Z,99692.03
2022-09-27T10:02:26.802Z,99701.50
2022-09-27T10:05:04.008Z,99705.25
2022-09-27T10:07:41.368Z,99729.53
2022-09-27T10:10:15.865Z,99749.00
2022-09-27T10:12:45.698Z,99780.28
2022-09-27T10:15:18.471Z,99788.22
2022-09-27T10:17:51.217Z,99704.06
2022-09-27T10:20:33.474Z,99658.63
2022-09-27T10:23:11.211Z,99629.69
2022-09-27T10:25:58.658Z,99611.97
2022-09-27T10:28:37.515Z,99553.59
2022-09-27T10:31:07.205Z,99537.56
2022-09-27T10:33:36.209Z,99556.22
2022-09-27T10:36:05.049Z,99510.69
2022-09-27T10:38:35.002Z,99488.28
2022-09-27T10:41:24.470Z,99453.69
2022-09-27T10:43:52.517Z,99475.84
2022-09-27T10:46:27.565Z,99461.50
2022-09-27T10:49:14.086Z,99452.84
2022-09-27T10:51:42.161Z,99442.91
2022-09-27T10:54:21.476Z,99450.06
2022-09-27T10:56:59.150Z,99442.34
2022-09-27T10:59:31.785Z,99450.78
2022-09-27T11:02:00.445Z,99443.19
2022-09-27T11:04:32.055Z,99452.72
2022-09-27T11:07:15.464Z,99477.06
2022-09-27T11:09:49.741Z,99486.50
2022-09-27T11:12:21.231Z,99473.09
2022-09-27T11:14:57.208Z,99484.72
2022-09-27T11:17:35.981Z,99477.22
2022-09-27T11:20:14.974Z,99485.31
2022-09-27T11:23:15.421Z,99461.50
2022-09-27T11:25:52.830Z,99446.66
2022-09-27T11:28:36.543Z,99436.88
2022-09-27T11:31:19.429Z,99434.09
2022-09-27T11:34:12.490Z,99421.59
2022-09-27T11:36:57.102Z,99409.97
2022-09-27T11:39:40.988Z,99424.28
2022-09-27T11:42:25.582Z,99464.75
2022-09-27T11:45:34.247Z,99492.53
2022-09-27T11:48:04.850Z,99541.00
2022-09-27T11:50:56.469Z,99545.78
2022-09-27T11:53:50.249Z,99549.75
2022-09-27T11:56:28.657Z,99572.88
2022-09-27T11:59:11.413Z,99563.38
2022-09-27T12:01:51.369Z,99555.00
2022-09-27T12:04:50.384Z,99570.81
2022-09-27T12:07:26.564Z,99612.31
2022-09-27T12:10:00.903Z,99612.09
2022-09-27T12:12:33.752Z,99580.75
2022-09-27T12:15:06.917Z,99558.44
2022-09-27T12:17:39.877Z,99533.88
2022-09-27T12:20:15.787Z,99544.66
2022-09-27T12:23:00.704Z,99536.94
2022-09-27T12:25:32.833Z,99517.28
2022-09-27T12:28:08.864Z,99514.47
2022-09-27T12:30:41.226Z,99514.94
2022-09-27T12:33:19.626Z,99490.25
2022-09-27T12:35:52.358Z,99504.69
2022-09-27T12:38:27.255Z,99493.81
2022-09-27T12:40:59.534Z,99503.03
2022-09-27T12:43:31.927Z,99494.22
2022-09-27T12:46:09.610Z,99489.84
2022-09-27T12:48:48.485Z,99493.66
2022-09-27T12:51:19.863Z,99495.91
2022-09-27T12:54:06.449Z,99498.63
2022-09-27T12:56:47.128Z,99487.03
2022-09-27T12:59:43.012Z,99465.56
2022-09-27T13:03:11.217Z,99445.69
2022-09-27T13:06:12.169Z,99448.03
2022-09-27T13:09:19.178Z,99455.22
2022-09-27T13:11:57.019Z,99444.97
2022-09-27T13:14:28.689Z,99439.38
2022-09-27T13:16:56.786Z,99406.09
2022-09-27T13:19:44.110Z,99431.44
2022-09-27T13:22:37.844Z,99438.19
2022-09-27T13:25:52.963Z,99431.13
2022-09-27T13:28:58.376Z,99467.16
2022-09-27T13:31:59.994Z,99484.06
2022-09-27T13:34:40.004Z,99496.09
2022-09-27T13:37:47.133Z,99506.34
2022-09-27T13:40:28.436Z,99534.78
2022-09-27T13:43:43.525Z,99547.38
2022-09-27T13:46:18.754Z,99568.91
2022-09-27T13:48:52.008Z,99581.13
2022-09-27T13:51:32.027Z,99570.22
2022-09-27T13:54:06.655Z,99561.41
2022-09-27T13:56:57.145Z,99558.88
2022-09-27T13:59:35.390Z,99542.19
2022-09-27T14:02:14.584Z,99541.16
2022-09-27T14:04:48.306Z,99538.16
2022-09-27T14:07:20.027Z,99531.94
2022-09-27T14:09:53.041Z,99515.41
2022-09-27T14:12:23.439Z,99518.97
2022-09-27T14:14:54.781Z,99511.84
2022-09-27T14:17:23.454Z,99466.97
2022-09-27T14:19:51.775Z,99519.56
2022-09-27T14:22:22.156Z,99519.16
2022-09-27T14:24:52.641Z,99506.25
2022-09-27T14:27:22.643Z,99510.72
2022-09-27T14:29:53.277Z,99507.06
2022-09-27T14:32:23.414Z,99509.28
2022-09-27T14:35:07.034Z,99509.56
2022-09-27T14:37:36.376Z,99510.66
2022-09-27T14:40:09.587Z,99509.44
2022-09-27T14:42:38.629Z,99500.56
2022-09-27T14:45:17.319Z,99495.81
2022-09-27T14:47:50.100Z,99501.91
2022-09-27T14:50:22.636Z,99503.19
2022-09-27T14:52:54.889Z,99496.84
2022-09-27T14:55:27.675Z,99495.38
2022-09-27T14:57:58.460Z,99491.97
2022-09-27T15:00:32.104Z,99497.25
2022-09-27T15:03:03.308Z,99490.06
2022-09-27T15:05:34.177Z,99488.09
2022-09-27T15:08:05.873Z,99482.56
2022-09-27T15:10:37.011Z,99496.91
2022-09-27T15:13:07.308Z,99487.19
2022-09-27T15:15:40.601Z,99496.03
2022-09-27T15:18:41.298Z,99492.78
2022-09-27T15:21:11.505Z,99489.00
2022-09-27T15:23:41.460Z,99488.72
2022-09-27T15:26:15.898Z,99483.41
2022-09-27T15:28:46.606Z,99499.41
2022-09-27T15:31:15.763Z,99480.75
2022-09-27T15:33:43.953Z,99486.56
2022-09-27T15:36:15.849Z,99491.16
2022-09-27T15:38:47.369Z,99492.81
2022-09-27T15:41:18.729Z,99492.38
2022-09-27T15:43:47.748Z,99491.63
2022-09-27T15:46:34.196Z,99486.63
2022-09-27T15:49:30.173Z,99480.75
2022-09-27T15:51:59.786Z,99478.19
2022-09-27T15:54:30.258Z,99483.59
2022-09-27T15:57:04.501Z,99482.06
2022-09-27T15:59:35.529Z,99480.78
2022-09-27T16:02:08.195Z,99485.00
2022-09-27T16:04:36.567Z,99485.00
2022-09-27T16:07:09.032Z,99490.88
2022-09-27T16:09:36.894Z,99490.06
2022-09-27T16:12:06.444Z,99492.97
2022-09-27T16:14:34.346Z,99484.78
2022-09-27T16:17:02.114Z,99484.19
2022-09-27T16:19:29.997Z,99494.59
2022-09-27T16:21:57.846Z,99479.25
2022-09-27T16:24:27.967Z,99486.91
2022-09-27T16:26:56.173Z,99481.28
2022-09-27T16:29:25.579Z,99480.19
2022-09-27T16:31:54.377Z,99479.63
2022-09-27T16:34:22.621Z,99476.88
2022-09-27T16:36:51.064Z,99489.75
2022-09-27T16:39:18.917Z,99486.78
2022-09-27T16:41:46.804Z,99491.38
2022-09-27T16:44:17.437Z,99486.09
2022-09-27T16:46:47.299Z,99489.91
2022-09-27T16:49:29.115Z,99478.72
2022-09-27T16:52:03.070Z,99483.28
2022-09-27T16:54:31.454Z,99480.25
2022-09-27T16:57:00.553Z,99465.28
2022-09-27T16:59:29.703Z,99489.56
2022-09-27T17:01:59.062Z,99459.75
2022-09-27T17:04:28.770Z,99464.09
2022-09-27T17:06:57.398Z,99466.66
2022-09-27T17:09:25.716Z,99463.50
2022-09-27T17:11:55.359Z,99454.03
2022-09-27T17:14:23.484Z,99470.28
2022-09-27T17:16:52.074Z,99492.97
2022-09-27T17:19:22.934Z,99483.13
2022-09-27T17:21:51.510Z,99480.09
2022-09-27T17:24:19.453Z,99492.19
2022-09-27T17:26:47.273Z,99504.00
2022-09-27T17:29:16.470Z,99499.66
2022-09-27T17:31:46.228Z,99474.34
2022-09-27T17:34:15.703Z,99502.75
2022-09-27T17:36:48.392Z,99470.69
2022-09-27T17:39:18.708Z,99491.97
2022-09-27T17:41:46.848Z,99495.13
2022-09-27T17:44:16.449Z,99498.47
2022-09-27T17:46:45.694Z,99502.81
2022-09-27T17:49:32.630Z,99491.25
2022-09-27T17:52:02.288Z,99503.19
2022-09-27T17:54:32.831Z,99504.81
2022-09-27T17:57:00.811Z,99502.09
2022-09-27T17:59:28.726Z,99495.47
2022-09-27T18:01:56.855Z,99504.97
2022-09-27T18:04:25.068Z,99494.19
2022-09-27T18:06:53.115Z,99510.00
2022-09-27T18:09:22.415Z,99507.78
2022-09-27T18:11:50.745Z,99502.03
2022-09-27T18:14:18.939Z,99502.75
2022-09-27T18:16:46.847Z,99502.13
2022-09-27T18:19:16.659Z,99488.25
2022-09-27T18:21:45.308Z,99497.19
2022-09-27T18:24:14.349Z,99500.88
2022-09-27T18:26:48.485Z,99484.03
2022-09-27T18:29:18.579Z,99502.50
2022-09-27T18:31:49.003Z,99508.00
2022-09-27T18:34:18.732Z,99509.25
2022-09-27T18:36:47.255Z,99506.50
2022-09-27T18:39:18.964Z,99507.03
2022-09-27T18:41:49.504Z,99505.34
2022-09-27T18:44:18.815Z,99504.34
2022-09-27T18:46:47.697Z,99503.63
2022-09-27T18:49:16.531Z,99505.91
2022-09-27T18:51:47.019Z,99504.19
2022-09-27T18:54:16.972Z,99505.00
2022-09-27T18:56:45.211Z,99515.47
2022-09-27T18:59:14.802Z,99514.88
2022-09-27T19:01:45.473Z,99505.78
2022-09-27T19:04:17.511Z,99502.63
2022-09-27T19:06:47.353Z,99508.34
2022-09-27T19:09:15.342Z,99513.75
2022-09-27T19:11:43.210Z,99513.75
2022-09-27T19:14:18.463Z,99518.72
2022-09-27T19:16:48.401Z,99511.97
2022-09-27T19:19:18.326Z,99495.13
2022-09-27T19:21:46.843Z,99515.00
2022-09-27T19:24:15.672Z,99510.13
2022-09-27T19:26:43.568Z,99512.66
2022-09-27T19:29:12.845Z,99512.03
2022-09-27T19:31:42.698Z,99510.47
2022-09-27T19:34:11.882Z,99517.00
2022-09-27T19:36:39.944Z,99518.44
2022-09-27T19:39:08.006Z,99521.41
2022-09-27T19:41:35.861Z,99519.41
2022-09-27T19:44:03.943Z,99511.72
2022-09-27T19:46:31.906Z,99508.31
2022-09-27T19:49:01.612Z,99516.59
2022-09-27T19:51:31.021Z,99516.13
2022-09-27T19:53:58.958Z,99501.75
2022-09-27T19:56:27.482Z,99511.63
2022-09-27T19:58:55.735Z,99509.06
2022-09-27T20:01:26.064Z,99504.53
2022-09-27T20:03:56.993Z,99514.44
2022-09-27T20:06:26.631Z,99491.38
2022-09-27T20:08:55.728Z,99507.44
2022-09-27T20:11:24.529Z,99510.72
2022-09-27T20:13:54.319Z,99501.63
2022-09-27T20:16:24.350Z,99504.53
2022-09-27T20:18:54.565Z,99508.63
2022-09-27T20:21:24.858Z,99505.78
2022-09-27T20:23:56.084Z,99501.84
2022-09-27T20:26:26.535Z,99493.53
2022-09-27T20:28:56.976Z,99494.69
2022-09-27T20:31:26.600Z,99505.31
2022-09-27T20:33:54.808Z,99491.44
2022-09-27T20:36:23.961Z,99490.38
2022-09-27T20:38:58.201Z,99494.59
2022-09-27T20:41:30.893Z,99490.16
2022-09-27T20:44:01.096Z,99495.38
2022-09-27T20:46:28.999Z,99482.00
2022-09-27T20:48:58.999Z,99494.59
2022-09-27T20:51:28.099Z,99491.66
2022-09-27T20:53:57.382Z,99491.03
2022-09-27T20:56:29.895Z,99492.50
2022-09-27T20:58:59.390Z,99485.25
2022-09-27T21:01:29.114Z,99481.47
2022-09-27T21:03:58.550Z,99484.25
2022-09-27T21:06:27.213Z,99479.63
2022-09-27T21:08:55.842Z,99485.53
2022-09-27T21:11:25.453Z,99472.78
2022-09-27T21:13:54.541Z,99471.16
2022-09-27T21:16:24.374Z,99479.56
2022-09-27T21:18:52.911Z,99470.28
2022-09-27T21:21:22.103Z,99471.72
2022-09-27T21:23:55.170Z,99464.88
2022-09-27T21:26:25.969Z,99464.25
2022-09-27T21:28:55.402Z,99468.91
2022-09-27T21:31:25.387Z,99466.34
2022-09-27T21:33:55.071Z,99465.75
2022-09-27T21:36:24.298Z,99460.34
2022-09-27T21:38:53.123Z,99460.22
2022-09-27T21:41:21.027Z,99460.56
2022-09-27T21:43:50.803Z,99452.78
2022-09-27T21:46:20.262Z,99445.72
2022-09-27T21:48:51.049Z,99446.84
2022-09-27T21:51:20.639Z,99443.25
2022-09-27T21:53:51.740Z,99451.28
2022-09-27T21:56:22.362Z,99418.06
2022-09-27T21:58:52.077Z,99433.31
2022-09-27T22:01:22.062Z,99425.34
2022-09-27T22:03:54.030Z,99412.38
2022-09-27T22:06:24.153Z,99418.44
2022-09-27T22:08:53.227Z,99430.03
2022-09-27T22:11:22.876Z,99415.97
2022-09-27T22:13:52.544Z,99406.19
2022-09-27T22:16:22.556Z,99408.69
2022-09-27T22:18:53.325Z,99410.94
2022-09-27T22:21:23.889Z,99409.97
2022-09-27T22:23:54.992Z,99400.63
2022-09-27T22:26:24.764Z,99404.47
2022-09-27T22:28:54.757Z,99380.53
2022-09-27T22:31:24.024Z,99410.41
2022-09-27T22:33:53.755Z,99404.47
2022-09-27T22:36:22.445Z,99400.31
2022-09-27T22:38:51.240Z,99391.69
2022-09-27T22:41:19.454Z,99376.34
2022-09-27T22:43:47.685Z,99384.22
2022-09-27T22:46:17.366Z,99380.84
2022-09-27T22:48:45.291Z,99376.66
2022-09-27T22:51:13.944Z,99371.09
2022-09-27T22:53:41.844Z,99374.91
2022-09-27T22:56:13.455Z,99355.84
2022-09-27T22:58:43.009Z,99354.28
2022-09-27T23:01:12.985Z,99352.56
2022-09-27T23:03:42.885Z,99356.84
2022-09-27T23:06:11.289Z,99355.59
2022-09-27T23:08:39.774Z,99347.25
2022-09-27T23:11:09.827Z,99347.59
2022-09-27T23:13:41.322Z,99347.78
2022-09-27T23:16:11.097Z,99336.78
2022-09-27T23:18:39.641Z,99340.09
2022-09-27T23:21:11.008Z,99320.03
2022-09-27T23:23:41.437Z,99326.47
2022-09-27T23:26:11.345Z,99303.13
2022-09-27T23:28:39.942Z,99315.88
2022-09-27T23:31:09.889Z,99311.72
2022-09-27T23:33:38.555Z,99294.56
2022-09-27T23:36:09.235Z,99313.34
2022-09-27T23:38:40.259Z,99303.66
2022-09-27T23:41:09.255Z,99301.97
2022-09-27T23:43:37.039Z,99295.94
2022-09-27T23:46:06.054Z,99305.47
2022-09-27T23:48:34.625Z,99292.19
2022-09-27T23:51:03.564Z,99286.34
2022-09-27T23:53:32.741Z,99294.00
2022-09-27T23:56:02.714Z,99285.09
2022-09-27T23:58:33.775Z,99269.53
